Terminal Aerodrome Forecast
Issued by NWS Knoxville/Tri Cities, TN

Home | Current Version | Previous Version | Text Only | Print | Product List | Glossary On
Versions: 1 2 3 4 5 6 7 8 9 10 11 12 13 14 15 16 17 18 19 20 21 22 23 24 25 26 27 28 29 30 31 32
000
FTUS44 KMRX 010906 AAC
TAFTRI
TAF AMD
KTRI 010906Z 0109/0206 00000KT 3SM BR FEW005
     FM011000 00000KT 2SM BR SCT001
      TEMPO 0110/0113 1/4SM FG VV001
     FM011500 27005KT P6SM SCT050=

USA.gov is the U.S. government's official web portal to all federal, state and local government web resources and services.